Terminal Aerodrome Forecast
Issued by NWS

Home | Current Version | Previous Version | Text Only | Print | Product List | Glossary On
Versions: 1 2 3 4 5 6 7 8 9 10 11 12 13 14 15
000
FTUS45 KTFX 271100
TAFBZN
TAF
KBZN 271136Z 2712/2812 VRB06KT P6SM BKN150
     FM271600 VRB06KT P6SM SCT070 BKN120
     FM271800 27006KT P6SM VCSH OVC035 PROB30 2721/2724 2SM -SN
      OVC015
     FM280000 VRB06KT 1SM -SN OVC015
     FM280600 28006KT P6SM OVC020=

USA.gov is the U.S. government's official web portal to all federal, state and local government web resources and services.